Airfield :
LOGIN :

Register | Disclaimer

   EN    FR    IT 

 










Legend :    VFR   Marginal VFR   IFR   Intensive IFR   Very Intensive IFR
Visi :
Ceiling :
>= 8 km
>= 3000ft
5 to 8 km
1000 to 3000 ft
1500m to 5 km
500 to 1000 ft
800 to 1500m
200 to 500 ft
< 800m
< 200 ft
Symbols :   Thunderstorms  Fog  Heavy snow  Heavy precipitations  Wind > 20 kt
SIGMETs :     Misc.  Thunderstorms  Icing  Turbulence  Mountain Waves  Volcanic Ashes







- Airport Elevation : 312 ft
- IATA code : SAW


LTFJ - Sabiha Gokcen

CURRENT METAR :
  • 230420Z 04010KT 9000 BKN007 22/20 Q1014 NOSIG RMK RWY24 03007KT

EXPIRED METARs :
  • 230350Z 04008KT 9000 SCT008 21/20 Q1014 NOSIG RMK RWY24 02007KT
  • 230320Z 04008KT 8000 BKN005 21/20 Q1014 BECMG 4000 BR TEMPO 1600 BCFG BKN003
  • 230250Z 02008KT 6000 BKN003 21/20 Q1014 BECMG 4000 BR TEMPO 1600 BCFG RMK RWY24 36004KT
  • 230220Z 03008KT 8000 SCT003 21/20 Q1014 BECMG TL0300 4000 BR TEMPO FM0300 1600 BCFG BKN003
  • 230150Z 02007KT 9000 SCT003 21/20 Q1014 NOSIG

TAF AMD TAF LTFJ
Valid from the 23 at 02:00 until the 24 at 00:00 UTC


230215Z 2302/2324 04005KT 6000 SCT003
BECMG 2302/2303 4000 BR
TEMPO 2303/2305 1600 BCFG BKN003
BECMG 2305/2307 9999 NSW BKN035
BECMG 2307/2309 04015KT SCT035
BECMG 2309/2312 CAVOK
BECMG 2318/2321 04005KT SCT035
PROB40
TEMPO 2321/2324 -TSRA FEW020CB BKN030
No reported NOTAMs for that airfield.



MET'MAP, your aeronautical weather chart ! - Copyright ORBIFLY December 2007 - Disclaimer

ORBIFLY MET'MAP TEAM :

Programming & Development : Alexandra Zaïnal
Concept & Development : Baudouin d'Aumeries
Co-Development & Prog : Marc-Olivier Méhu
Technical & hardware support : Manuel Goepfert

Contact : metmap@orbifly.com




SOURCES & CREDITS :

   NOAA